Time;durP1;ratioP1;P1;durP2;ratioP2;P2;SDS_P1;SDS_P2;PMS_P1;PMS_P2;Temp;Humidity;BMP_temperature;BMP_pressure;BME280_temperature;BME280_humidity;BME280_pressure;Samples;Min_cycle;Max_cycle;Signal;HPM_P1;HPM_P2
2023/10/03 00:00:58;;;;;;;21.50;14.60;;;13.80;99.90;;;;;;4926420;29;20039;-58
2023/10/03 00:03:24;;;;;;;27.15;15.60;;;13.80;99.90;;;;;;4927165;29;20048;-58
2023/10/03 00:05:51;;;;;;;29.02;15.23;;;13.80;99.90;;;;;;4927117;29;20099;-58
2023/10/03 00:08:18;;;;;;;22.85;14.48;;;13.80;99.90;;;;;;4925964;29;20111;-58
2023/10/03 00:10:45;;;;;;;24.63;15.77;;;13.80;99.90;;;;;;4929958;29;20496;-58
2023/10/03 00:13:12;;;;;;;27.10;15.77;;;13.80;99.90;;;;;;4929124;29;20118;-59
2023/10/03 00:15:43;;;;;;;23.83;14.57;;;13.80;99.90;;;;;;4927258;29;20028;-58
2023/10/03 00:18:10;;;;;;;28.23;14.25;;;13.80;99.90;;;;;;4924882;28;20035;-58
2023/10/03 00:20:36;;;;;;;23.60;14.05;;;13.80;99.90;;;;;;4927905;29;20391;-58
2023/10/03 00:23:02;;;;;;;21.75;14.65;;;13.80;99.90;;;;;;4927505;29;20142;-58
2023/10/03 00:25:30;;;;;;;25.80;14.27;;;13.80;99.90;;;;;;4927623;29;20039;-58
2023/10/03 00:27:59;;;;;;;23.00;15.30;;;13.80;99.90;;;;;;4926056;29;20111;-58
2023/10/03 00:30:26;;;;;;;23.48;14.23;;;13.70;99.90;;;;;;4929726;29;20032;-58
2023/10/03 00:32:54;;;;;;;26.30;14.40;;;13.70;99.90;;;;;;4926604;29;20058;-59
2023/10/03 00:35:20;;;;;;;24.15;14.45;;;13.70;99.90;;;;;;4927755;29;20134;-59
2023/10/03 00:37:48;;;;;;;20.80;14.02;;;13.70;99.90;;;;;;4927608;29;20091;-58
2023/10/03 00:42:59;;;;;;;22.92;14.65;;;13.70;99.90;;;;;;4929430;29;20039;-58
2023/10/03 00:45:29;;;;;;;25.88;14.55;;;13.70;99.90;;;;;;4925245;29;20032;-58
2023/10/03 00:48:00;;;;;;;24.17;13.32;;;13.70;99.90;;;;;;4925214;29;20099;-59
2023/10/03 00:50:27;;;;;;;;;;;13.70;99.90;;;;;;4928605;29;20087;-58
2023/10/03 00:52:57;;;;;;;22.05;14.85;;;13.70;99.90;;;;;;4925796;29;19917;-58
2023/10/03 00:55:26;;;;;;;28.10;14.90;;;13.70;99.90;;;;;;4926056;29;20408;-58
2023/10/03 00:58:04;;;;;;;25.65;14.65;;;13.70;99.90;;;;;;4926133;29;20032;-58
2023/10/03 01:00:31;;;;;;;24.40;14.75;;;13.80;99.90;;;;;;4925611;29;20481;-58
2023/10/03 01:02:57;;;;;;;24.83;15.10;;;13.80;99.90;;;;;;4926625;29;20055;-59
2023/10/03 01:05:23;;;;;;;29.05;15.65;;;13.80;99.90;;;;;;4923868;29;20056;-59
2023/10/03 01:07:49;;;;;;;23.42;15.23;;;13.80;99.90;;;;;;4927212;28;20640;-58
2023/10/03 01:10:18;;;;;;;26.52;13.70;;;13.80;99.90;;;;;;4927983;29;20059;-58
2023/10/03 01:12:49;;;;;;;24.80;14.05;;;13.80;99.90;;;;;;4928004;28;20106;-58
2023/10/03 01:15:17;;;;;;;29.15;15.40;;;13.90;99.90;;;;;;4913629;29;20051;-58
2023/10/03 01:17:46;;;;;;;22.33;14.07;;;13.90;99.90;;;;;;4914365;28;20098;-58
2023/10/03 01:20:18;;;;;;;25.17;14.32;;;13.90;99.90;;;;;;4927413;29;20038;-58
2023/10/03 01:22:49;;;;;;;22.83;14.38;;;13.90;99.90;;;;;;4927567;29;20043;-58
2023/10/03 01:25:16;;;;;;;20.73;13.57;;;13.90;99.90;;;;;;4925924;29;20028;-58
2023/10/03 01:27:41;;;;;;;25.13;13.35;;;13.90;99.90;;;;;;4925659;29;20035;-58
2023/10/03 01:30:08;;;;;;;18.00;12.20;;;13.90;99.90;;;;;;4925407;29;20032;-58
2023/10/03 01:32:43;;;;;;;24.73;13.90;;;13.90;99.90;;;;;;4923473;29;20446;-59
2023/10/03 01:35:11;;;;;;;25.08;14.10;;;13.90;99.90;;;;;;4925425;29;20051;-57
2023/10/03 01:37:39;;;;;;;23.15;14.43;;;13.90;99.90;;;;;;4923983;29;20032;-59
2023/10/03 01:40:13;;;;;;;26.90;14.48;;;13.80;99.90;;;;;;4926770;29;20044;-58
2023/10/03 01:42:45;;;;;;;21.92;13.95;;;13.80;99.90;;;;;;4923172;29;20039;-58
2023/10/03 01:45:17;;;;;;;27.73;14.55;;;13.80;99.90;;;;;;4925608;29;20115;-58
2023/10/03 01:47:45;;;;;;;24.45;13.88;;;13.80;99.90;;;;;;4925008;28;20035;-58
2023/10/03 01:50:15;;;;;;;22.63;13.93;;;13.80;99.90;;;;;;4923769;29;20023;-58
2023/10/03 01:52:41;;;;;;;26.60;14.77;;;13.80;99.90;;;;;;4925158;29;20096;-58
2023/10/03 01:55:12;;;;;;;24.17;14.18;;;13.80;99.90;;;;;;4923711;29;20040;-58
2023/10/03 01:57:41;;;;;;;21.58;13.43;;;13.80;99.90;;;;;;4924826;29;20086;-58
2023/10/03 02:00:25;;;;;;;23.10;12.40;;;13.90;99.90;;;;;;4924866;29;20028;-59
2023/10/03 02:03:05;;;;;;;22.42;12.45;;;13.90;99.90;;;;;;4922550;29;20556;-59
2023/10/03 02:05:42;;;;;;;20.42;12.13;;;13.80;99.90;;;;;;4929149;29;20106;-57
2023/10/03 02:08:15;;;;;;;25.98;12.40;;;13.80;99.90;;;;;;4924479;29;20119;-58
2023/10/03 02:10:43;;;;;;;22.23;13.07;;;13.80;99.90;;;;;;4927396;28;20020;-58
2023/10/03 02:13:14;;;;;;;17.88;10.25;;;13.80;99.90;;;;;;4926037;29;20045;-58
2023/10/03 02:15:42;;;;;;;19.67;12.70;;;13.80;99.90;;;;;;4925671;29;20066;-58
2023/10/03 02:18:10;;;;;;;27.77;13.40;;;13.80;99.90;;;;;;4923694;29;20035;-58
2023/10/03 02:20:53;;;;;;;30.63;14.80;;;13.80;99.90;;;;;;4923963;29;20456;-57
2023/10/03 02:23:25;;;;;;;22.50;13.82;;;13.80;99.90;;;;;;4924732;29;20047;-58
2023/10/03 02:25:54;;;;;;;26.20;13.65;;;13.70;99.90;;;;;;4922794;29;20035;-60
2023/10/03 02:28:20;;;;;;;18.38;12.98;;;13.80;99.90;;;;;;4926328;28;20080;-58
2023/10/03 02:30:49;;;;;;;21.30;13.00;;;13.80;99.90;;;;;;4929635;29;20030;-58
2023/10/03 02:33:15;;;;;;;21.60;12.63;;;13.80;99.90;;;;;;4928436;29;20024;-58
2023/10/03 02:35:42;;;;;;;23.20;13.02;;;13.80;99.90;;;;;;4925820;29;20059;-58
2023/10/03 02:38:13;;;;;;;31.40;13.80;;;13.80;99.90;;;;;;4928491;29;20111;-58
2023/10/03 02:40:40;;;;;;;20.80;13.38;;;13.80;99.90;;;;;;4930674;29;20028;-58
2023/10/03 02:43:06;;;;;;;19.95;11.70;;;13.80;99.90;;;;;;4928022;29;20496;-58
2023/10/03 02:45:32;;;;;;;24.58;13.43;;;13.80;99.90;;;;;;4926556;29;20036;-58
2023/10/03 02:47:58;;;;;;;17.48;11.50;;;13.80;99.90;;;;;;4927863;29;20167;-58
2023/10/03 02:50:26;;;;;;;19.15;11.45;;;13.80;99.90;;;;;;4930011;29;20114;-58
2023/10/03 02:52:53;;;;;;;19.98;13.27;;;13.80;99.90;;;;;;4929319;29;20091;-58
2023/10/03 02:55:18;;;;;;;23.30;13.80;;;13.80;99.90;;;;;;4926393;28;20032;-57
2023/10/03 02:57:45;;;;;;;25.17;12.73;;;13.70;99.90;;;;;;4928176;29;20038;-59
2023/10/03 03:00:14;;;;;;;19.92;13.50;;;13.70;99.90;;;;;;4929553;29;20042;-58
2023/10/03 03:02:47;;;;;;;22.80;13.27;;;13.70;99.90;;;;;;4916996;29;20518;-59
2023/10/03 03:05:17;;;;;;;24.50;13.27;;;13.70;99.90;;;;;;4930981;29;20090;-58
2023/10/03 03:07:57;;;;;;;26.05;14.02;;;13.70;99.90;;;;;;4927124;29;20036;-58
2023/10/03 03:10:24;;;;;;;21.10;12.90;;;13.70;99.90;;;;;;4930406;29;20115;-58
2023/10/03 03:12:50;;;;;;;23.02;12.93;;;13.70;99.90;;;;;;4928504;29;20054;-60
2023/10/03 03:15:23;;;;;;;24.80;14.07;;;13.70;99.90;;;;;;4928175;29;20028;-58
2023/10/03 03:17:50;;;;;;;21.55;13.70;;;13.70;99.90;;;;;;4930033;29;20032;-58
2023/10/03 03:20:36;;;;;;;25.00;12.75;;;13.70;99.90;;;;;;4930304;29;20044;-58
2023/10/03 03:23:02;;;;;;;19.38;12.18;;;13.70;99.90;;;;;;4928992;28;20038;-59
2023/10/03 03:25:42;;;;;;;26.90;13.35;;;13.70;99.90;;;;;;4926033;29;20083;-58
2023/10/03 03:28:15;;;;;;;21.10;13.20;;;13.70;99.90;;;;;;4927043;28;20032;-58
2023/10/03 03:30:46;;;;;;;21.27;12.90;;;13.70;99.90;;;;;;4925324;29;20465;-58
2023/10/03 03:33:23;;;;;;;18.60;12.90;;;13.70;99.90;;;;;;4926571;29;20032;-58
2023/10/03 03:35:48;;;;;;;23.73;13.55;;;13.70;99.90;;;;;;4927753;29;20062;-58
2023/10/03 03:38:15;;;;;;;22.70;12.57;;;13.70;99.90;;;;;;4927371;29;20124;-58
2023/10/03 03:40:46;;;;;;;20.63;11.90;;;13.60;99.90;;;;;;4925629;29;20083;-58
2023/10/03 03:43:13;;;;;;;22.42;12.25;;;13.60;99.90;;;;;;4913842;29;20032;-59
2023/10/03 03:45:40;;;;;;;22.88;13.90;;;13.60;99.90;;;;;;4928265;29;20504;-58
2023/10/03 03:48:06;;;;;;;22.65;12.80;;;13.60;99.90;;;;;;4931322;29;20032;-58
2023/10/03 03:50:32;;;;;;;19.55;12.18;;;13.60;99.90;;;;;;4928528;29;20020;-58
2023/10/03 03:53:02;;;;;;;25.75;12.90;;;13.60;99.90;;;;;;4928759;29;20028;-58
2023/10/03 03:55:29;;;;;;;24.77;12.93;;;13.50;99.90;;;;;;4926204;29;20048;-59
2023/10/03 03:58:12;;;;;;;18.75;12.95;;;13.50;99.90;;;;;;4925099;29;20040;-59
2023/10/03 04:00:39;;;;;;;26.15;13.60;;;13.50;99.90;;;;;;4924252;28;20058;-59
2023/10/03 04:03:11;;;;;;;22.67;12.90;;;13.50;99.90;;;;;;4923768;29;20070;-58
2023/10/03 04:05:37;;;;;;;22.80;13.75;;;13.40;99.90;;;;;;4929490;29;20034;-58
2023/10/03 04:08:04;;;;;;;24.50;13.20;;;13.40;99.90;;;;;;4929204;29;20289;-56
2023/10/03 04:10:30;;;;;;;24.55;13.48;;;13.40;99.90;;;;;;4927733;29;20082;-59
2023/10/03 04:12:56;;;;;;;24.65;12.88;;;13.40;99.90;;;;;;4925273;29;20032;-58
2023/10/03 04:15:23;;;;;;;20.02;12.68;;;13.40;99.90;;;;;;4926331;29;20450;-58
2023/10/03 04:17:49;;;;;;;25.90;13.75;;;13.40;99.90;;;;;;4928416;29;20032;-58
2023/10/03 04:22:51;;;;;;;23.38;13.75;;;13.30;99.90;;;;;;4925006;29;20086;-58
2023/10/03 04:25:23;;;;;;;20.33;12.63;;;13.30;99.90;;;;;;4924600;28;20472;-58
2023/10/03 04:27:51;;;;;;;21.30;13.18;;;13.30;99.90;;;;;;4925822;29;20035;-58
2023/10/03 04:30:19;;;;;;;22.40;13.18;;;13.20;99.90;;;;;;4929100;29;20032;-58
2023/10/03 04:32:47;;;;;;;24.85;13.65;;;13.20;99.90;;;;;;4928485;28;20076;-58
2023/10/03 04:35:20;;;;;;;20.17;12.32;;;13.20;99.90;;;;;;4926909;29;20094;-58
2023/10/03 04:37:49;;;;;;;21.40;12.90;;;13.20;99.90;;;;;;4926198;29;20095;-58
2023/10/03 04:40:21;;;;;;;25.98;15.13;;;13.20;99.90;;;;;;4927456;29;20066;-58
2023/10/03 04:42:48;;;;;;;22.08;13.65;;;13.20;99.90;;;;;;4927618;28;20036;-58
2023/10/03 04:45:18;;;;;;;27.83;13.85;;;13.20;99.90;;;;;;4926205;29;20028;-57
2023/10/03 04:47:46;;;;;;;24.95;12.60;;;13.20;99.90;;;;;;4928448;29;20040;-58
2023/10/03 04:50:17;;;;;;;20.38;13.38;;;13.20;99.90;;;;;;4924109;29;20481;-59
2023/10/03 04:52:44;;;;;;;27.10;14.48;;;13.20;99.90;;;;;;4924923;29;20602;-59
2023/10/03 04:55:09;;;;;;;21.40;13.02;;;13.20;99.90;;;;;;4926044;29;20111;-58
2023/10/03 04:57:35;;;;;;;29.25;14.32;;;13.20;99.90;;;;;;4926590;28;20116;-58
2023/10/03 05:00:04;;;;;;;24.77;14.27;;;13.20;99.90;;;;;;4929138;29;20110;-58
2023/10/03 05:02:30;;;;;;;23.77;13.98;;;13.20;99.90;;;;;;4927839;29;20054;-58
2023/10/03 05:04:56;;;;;;;25.08;14.27;;;13.20;99.90;;;;;;4927389;29;20075;-59
2023/10/03 05:07:25;;;;;;;25.23;14.63;;;13.20;99.90;;;;;;4926430;29;20039;-58
2023/10/03 05:09:51;;;;;;;26.98;15.13;;;13.20;99.90;;;;;;4923017;29;20088;-58
2023/10/03 05:12:17;;;;;;;23.65;13.55;;;13.20;99.90;;;;;;4925244;29;20038;-58
2023/10/03 05:14:45;;;;;;;26.17;14.55;;;13.30;99.90;;;;;;4913337;29;20024;-58
2023/10/03 05:17:11;;;;;;;24.25;13.98;;;13.30;99.90;;;;;;4929577;29;20036;-58
2023/10/03 05:19:36;;;;;;;29.65;15.15;;;13.40;99.90;;;;;;4927085;29;20043;-58
2023/10/03 05:22:03;;;;;;;22.50;13.30;;;13.40;99.90;;;;;;4928174;29;20100;-58
2023/10/03 05:24:32;;;;;;;23.25;13.70;;;13.50;99.90;;;;;;4925525;28;20051;-58
2023/10/03 05:26:58;;;;;;;25.25;14.25;;;13.50;99.90;;;;;;4926601;29;20021;-58
2023/10/03 05:29:26;;;;;;;26.88;14.23;;;13.50;99.90;;;;;;4925988;29;20098;-58
2023/10/03 05:31:52;;;;;;;22.67;13.07;;;13.50;99.90;;;;;;4924382;28;20099;-58
2023/10/03 05:34:20;;;;;;;24.40;13.27;;;13.50;99.90;;;;;;4924693;29;20032;-59
2023/10/03 05:36:46;;;;;;;19.40;12.82;;;13.60;99.90;;;;;;4923514;28;20119;-58
2023/10/03 05:39:12;;;;;;;17.52;12.00;;;13.60;99.90;;;;;;4926114;29;20404;-58
2023/10/03 05:41:41;;;;;;;20.55;14.25;;;13.60;99.90;;;;;;4924461;29;20106;-58
2023/10/03 05:44:11;;;;;;;25.50;13.55;;;13.60;99.90;;;;;;4926542;29;20044;-60
2023/10/03 05:46:42;;;;;;;20.15;11.70;;;13.70;99.90;;;;;;4926533;29;20115;-61
2023/10/03 05:49:09;;;;;;;22.23;12.52;;;13.70;99.90;;;;;;4926710;29;20425;-60
2023/10/03 05:51:34;;;;;;;18.65;11.50;;;13.80;99.90;;;;;;4923442;29;20032;-62
2023/10/03 05:54:02;;;;;;;18.88;12.07;;;13.80;99.90;;;;;;4926752;29;20660;-61
2023/10/03 05:56:27;;;;;;;21.80;12.30;;;13.90;99.90;;;;;;4927041;29;20024;-61
2023/10/03 05:58:53;;;;;;;20.50;12.13;;;13.90;99.90;;;;;;4925202;29;20043;-61
2023/10/03 06:01:19;;;;;;;23.02;12.50;;;13.90;99.90;;;;;;4924375;29;20044;-60
2023/10/03 06:03:45;;;;;;;21.30;12.60;;;13.90;99.90;;;;;;4927040;29;20047;-61
2023/10/03 06:06:11;;;;;;;24.50;12.57;;;14.00;99.90;;;;;;4929004;29;20484;-61
2023/10/03 06:08:37;;;;;;;26.13;12.77;;;14.00;99.90;;;;;;4931947;29;20015;-61
2023/10/03 06:11:03;;;;;;;22.10;12.50;;;14.00;99.90;;;;;;4927879;29;20052;-60
2023/10/03 06:13:29;;;;;;;22.80;13.55;;;14.00;99.90;;;;;;4928671;29;20116;-60
2023/10/03 06:15:59;;;;;;;25.92;14.77;;;14.10;99.90;;;;;;4928446;29;20499;-60
2023/10/03 06:18:26;;;;;;;27.65;13.93;;;14.10;99.90;;;;;;4930456;29;20036;-61
2023/10/03 06:20:51;;;;;;;22.80;13.13;;;14.10;99.90;;;;;;4927457;29;20488;-61
2023/10/03 06:23:17;;;;;;;27.77;12.52;;;14.20;99.90;;;;;;4929003;29;20039;-61
2023/10/03 06:25:43;;;;;;;26.42;14.05;;;14.20;99.90;;;;;;4912490;29;20058;-60
2023/10/03 06:28:09;;;;;;;23.00;12.60;;;14.20;99.90;;;;;;4928541;29;20032;-60
2023/10/03 06:30:37;;;;;;;24.05;13.73;;;14.30;99.90;;;;;;4928829;29;20167;-60
2023/10/03 06:33:05;;;;;;;25.90;13.77;;;14.30;99.90;;;;;;4927449;29;20042;-61
2023/10/03 06:35:32;;;;;;;29.77;13.93;;;14.30;99.90;;;;;;4923743;29;20115;-62
2023/10/03 06:37:57;;;;;;;24.63;13.38;;;14.40;99.90;;;;;;4929488;29;20172;-61
2023/10/03 06:40:23;;;;;;;27.63;13.70;;;14.40;99.90;;;;;;4928994;29;20548;-61
2023/10/03 06:42:49;;;;;;;22.30;12.55;;;14.40;99.90;;;;;;4912264;29;20054;-61
2023/10/03 06:45:14;;;;;;;25.92;13.88;;;14.50;99.90;;;;;;4927607;29;20024;-60
2023/10/03 06:47:40;;;;;;;22.40;13.13;;;14.50;99.90;;;;;;4929153;29;20079;-61
2023/10/03 06:50:07;;;;;;;21.63;13.80;;;14.50;99.90;;;;;;4924851;29;20027;-61
2023/10/03 06:52:34;;;;;;;23.60;13.30;;;14.50;99.90;;;;;;4927843;29;20043;-61
2023/10/03 06:55:00;;;;;;;29.55;14.35;;;14.50;99.90;;;;;;4928802;29;20077;-62
2023/10/03 06:57:25;;;;;;;26.20;13.00;;;14.50;99.90;;;;;;4927580;28;20059;-61
2023/10/03 06:59:53;;;;;;;25.48;13.38;;;14.50;99.90;;;;;;4930403;29;20020;-61
2023/10/03 07:02:18;;;;;;;26.45;13.48;;;14.60;99.90;;;;;;4929216;29;20442;-59
2023/10/03 07:04:44;;;;;;;30.90;14.35;;;14.70;99.90;;;;;;4927776;28;20042;-61
2023/10/03 07:07:10;;;;;;;32.85;15.52;;;14.80;99.90;;;;;;4927143;29;20028;-61
2023/10/03 07:09:38;;;;;;;23.20;13.75;;;15.00;99.90;;;;;;4928954;28;20075;-61
2023/10/03 07:12:07;;;;;;;22.60;13.68;;;15.20;99.90;;;;;;4928368;29;20040;-61
2023/10/03 07:14:35;;;;;;;26.33;13.88;;;15.30;99.90;;;;;;4927609;29;20039;-61
2023/10/03 07:17:02;;;;;;;24.92;14.52;;;15.50;99.90;;;;;;4927787;29;20497;-62
2023/10/03 07:19:31;;;;;;;21.17;14.02;;;15.70;99.90;;;;;;4928794;29;20072;-61
2023/10/03 07:21:57;;;;;;;22.27;13.10;;;15.80;99.90;;;;;;4927602;28;20028;-61
2023/10/03 07:24:26;;;;;;;23.10;13.73;;;16.00;99.90;;;;;;4925886;29;20039;-61
2023/10/03 07:26:52;;;;;;;26.02;13.65;;;16.10;99.90;;;;;;4924577;29;20031;-62
2023/10/03 07:29:17;;;;;;;27.13;13.43;;;16.20;99.90;;;;;;4925569;29;20020;-61
2023/10/03 07:31:43;;;;;;;21.02;13.57;;;16.20;99.90;;;;;;4925504;29;20039;-61
2023/10/03 07:34:09;;;;;;;22.17;13.18;;;16.10;99.90;;;;;;4929239;29;20038;-61
2023/10/03 07:36:36;;;;;;;30.15;13.73;;;16.00;99.90;;;;;;4927490;29;20032;-62
2023/10/03 07:39:03;;;;;;;24.20;12.98;;;15.90;99.90;;;;;;4929010;29;20091;-61
2023/10/03 07:41:29;;;;;;;27.40;14.15;;;15.90;99.90;;;;;;4928684;29;20119;-60
2023/10/03 07:43:54;;;;;;;26.52;14.48;;;15.90;99.90;;;;;;4927637;29;20115;-60
2023/10/03 07:46:27;;;;;;;27.40;13.45;;;16.10;99.90;;;;;;4924393;29;20028;-61
2023/10/03 07:48:53;;;;;;;24.40;14.05;;;16.10;99.90;;;;;;4926373;29;20611;-61
2023/10/03 07:51:23;;;;;;;20.52;13.75;;;16.30;99.90;;;;;;4926712;29;20037;-60
2023/10/03 07:53:51;;;;;;;21.90;14.13;;;16.40;99.90;;;;;;4927661;28;20032;-61
2023/10/03 07:56:30;;;;;;;20.73;13.23;;;16.50;99.90;;;;;;4928184;29;20124;-60
2023/10/03 07:59:02;;;;;;;27.63;13.23;;;16.50;99.90;;;;;;4926525;29;20055;-61
2023/10/03 08:01:29;;;;;;;25.52;13.80;;;16.70;99.90;;;;;;4925520;28;20043;-62
2023/10/03 08:03:56;;;;;;;27.60;14.48;;;16.90;99.90;;;;;;4925247;29;20799;-62
2023/10/03 08:06:23;;;;;;;25.15;13.32;;;17.10;99.90;;;;;;4927664;28;20127;-62
2023/10/03 08:08:59;;;;;;;22.30;13.05;;;17.30;99.90;;;;;;4925242;29;20031;-61
2023/10/03 08:11:28;;;;;;;33.45;14.10;;;17.40;99.90;;;;;;4926892;29;20040;-61
2023/10/03 08:13:56;;;;;;;23.58;13.63;;;17.60;99.90;;;;;;4929046;29;20024;-61
2023/10/03 08:16:22;;;;;;;22.40;12.40;;;17.80;99.90;;;;;;4926382;29;20039;-61
2023/10/03 08:18:57;;;;;;;23.80;13.40;;;17.90;99.90;;;;;;4928297;29;20028;-61
2023/10/03 08:21:29;;;;;;;26.55;14.00;;;18.10;99.90;;;;;;4925703;29;20575;-59
2023/10/03 08:23:56;;;;;;;22.15;14.13;;;18.30;99.90;;;;;;4923474;29;20055;-59
2023/10/03 08:26:23;;;;;;;33.53;14.80;;;18.50;99.90;;;;;;4924225;29;20032;-59
2023/10/03 08:28:59;;;;;;;25.98;13.85;;;18.70;99.90;;;;;;4927297;29;20032;-58
2023/10/03 08:31:28;;;;;;;24.15;13.70;;;18.90;99.90;;;;;;4927771;28;20035;-59
2023/10/03 08:33:57;;;;;;;24.55;13.05;;;19.00;99.90;;;;;;4925962;29;20032;-59
2023/10/03 08:36:27;;;;;;;21.50;13.55;;;19.10;99.90;;;;;;4925233;29;20040;-58
2023/10/03 08:39:04;;;;;;;22.33;13.68;;;19.30;99.90;;;;;;4925536;28;20107;-60
2023/10/03 08:41:45;;;;;;;24.25;14.35;;;19.40;99.90;;;;;;4926766;29;20062;-58
2023/10/03 08:44:12;;;;;;;23.77;13.90;;;19.50;99.90;;;;;;4927333;29;20118;-60
2023/10/03 08:46:49;;;;;;;21.67;13.20;;;19.70;99.90;;;;;;4925987;29;20027;-59
2023/10/03 08:49:19;;;;;;;24.75;13.82;;;19.80;99.90;;;;;;4927428;28;20046;-59
2023/10/03 08:51:48;;;;;;;22.67;14.50;;;19.90;99.90;;;;;;4924432;29;20111;-59
2023/10/03 08:54:14;;;;;;;23.35;12.90;;;20.00;99.90;;;;;;4927758;28;20059;-59
2023/10/03 08:56:41;;;;;;;30.05;13.77;;;20.10;99.90;;;;;;4923979;29;20058;-59
2023/10/03 08:59:09;;;;;;;26.60;14.23;;;20.30;99.90;;;;;;4925207;29;20027;-59
2023/10/03 09:01:43;;;;;;;19.77;13.07;;;20.50;99.90;;;;;;4926797;29;20056;-59
2023/10/03 09:04:16;;;;;;;19.80;12.20;;;20.90;99.90;;;;;;4925580;29;20381;-59
2023/10/03 09:06:46;;;;;;;26.50;13.45;;;21.50;99.90;;;;;;4925952;29;20031;-59
2023/10/03 09:09:16;;;;;;;21.63;12.73;;;22.00;99.90;;;;;;4929395;29;20111;-59
2023/10/03 09:11:51;;;;;;;18.95;12.65;;;22.40;99.90;;;;;;4924791;29;20541;-59
2023/10/03 09:14:19;;;;;;;22.50;12.77;;;22.80;99.90;;;;;;4927328;29;20523;-59
2023/10/03 09:16:50;;;;;;;17.65;12.10;;;23.30;99.90;;;;;;4926758;29;20028;-60
2023/10/03 09:19:26;;;;;;;18.95;12.02;;;23.60;99.90;;;;;;4926446;29;20095;-59
2023/10/03 09:21:53;;;;;;;19.63;11.85;;;23.80;99.90;;;;;;4928084;29;20584;-58
2023/10/03 09:24:25;;;;;;;19.33;11.82;;;24.10;99.90;;;;;;4926708;29;20143;-60
2023/10/03 09:26:54;;;;;;;17.73;12.02;;;24.40;99.90;;;;;;4925771;29;20568;-59
2023/10/03 09:29:29;;;;;;;17.50;11.98;;;24.50;99.90;;;;;;4925430;29;20110;-58
2023/10/03 09:32:21;;;;;;;16.92;12.18;;;24.50;99.90;;;;;;4927631;28;20059;-60
2023/10/03 09:34:57;;;;;;;19.35;11.77;;;24.60;99.90;;;;;;4927884;29;20028;-60
2023/10/03 09:37:28;;;;;;;14.93;10.70;;;25.00;99.90;;;;;;4923793;29;20040;-60
2023/10/03 09:39:59;;;;;;;16.02;11.48;;;25.20;99.90;;;;;;4924823;29;20407;-60
2023/10/03 09:42:25;;;;;;;17.65;11.50;;;25.50;98.70;;;;;;4926948;28;20154;-60
2023/10/03 09:44:51;;;;;;;15.32;10.25;;;25.80;95.60;;;;;;4924878;29;20186;-60
2023/10/03 09:47:27;;;;;;;16.52;12.07;;;26.00;94.00;;;;;;4926362;29;20524;-60
2023/10/03 09:50:03;;;;;;;14.75;10.15;;;26.40;93.40;;;;;;4928324;29;20497;-59
2023/10/03 09:52:30;;;;;;;21.10;10.68;;;26.70;92.20;;;;;;4925981;29;20024;-60
2023/10/03 09:55:00;;;;;;;12.70;9.07;;;26.70;92.00;;;;;;4926772;29;20034;-60
2023/10/03 09:57:29;;;;;;;11.18;8.85;;;26.70;85.20;;;;;;4924315;29;20036;-60
2023/10/03 09:59:56;;;;;;;12.13;9.15;;;26.70;86.10;;;;;;4927490;29;20025;-61
2023/10/03 10:05:22;;;;;;;9.25;7.10;;;26.50;83.40;;;;;;4924100;29;20040;-60
2023/10/03 10:08:27;;;;;;;8.38;6.70;;;26.30;80.10;;;;;;4925915;29;20123;-59
2023/10/03 10:11:09;;;;;;;12.55;7.43;;;26.20;78.10;;;;;;4912770;29;20408;-60
2023/10/03 10:13:37;;;;;;;8.73;7.18;;;26.20;78.10;;;;;;4926475;29;20035;-59
2023/10/03 10:16:11;;;;;;;11.00;7.70;;;26.20;77.10;;;;;;4926262;29;20036;-60
2023/10/03 10:18:45;;;;;;;8.85;7.10;;;26.20;76.80;;;;;;4922221;29;20031;-60
2023/10/03 10:21:37;;;;;;;10.30;7.57;;;26.20;77.40;;;;;;4926196;28;20040;-59
2023/10/03 10:24:20;;;;;;;8.77;7.05;;;26.40;78.70;;;;;;4924113;29;20040;-59
2023/10/03 10:26:49;;;;;;;11.32;7.65;;;26.30;77.20;;;;;;4924401;29;20032;-60
2023/10/03 10:29:24;;;;;;;14.02;7.50;;;26.40;77.70;;;;;;4925075;29;20048;-60
2023/10/03 10:31:59;;;;;;;11.93;7.47;;;26.40;77.90;;;;;;4927432;29;20036;-59
2023/10/03 10:34:35;;;;;;;9.20;7.45;;;26.50;77.20;;;;;;4925557;28;20042;-59
2023/10/03 10:37:09;;;;;;;9.35;7.32;;;26.50;76.20;;;;;;4927695;29;20035;-60
2023/10/03 10:39:53;;;;;;;9.32;6.72;;;26.40;75.50;;;;;;4924255;29;20111;-60
2023/10/03 10:42:24;;;;;;;9.02;7.47;;;26.30;76.10;;;;;;4924459;29;20043;-59
2023/10/03 10:45:15;;;;;;;;;;;26.30;76.20;;;;;;4924897;29;20668;-60
2023/10/03 10:47:51;;;;;;;10.07;7.00;;;26.30;77.40;;;;;;4922482;29;20394;-60
2023/10/03 10:50:17;;;;;;;12.10;7.13;;;25.90;76.40;;;;;;4928453;29;20036;-59
2023/10/03 10:52:54;;;;;;;14.20;7.80;;;25.80;77.60;;;;;;4929918;29;20031;-60
2023/10/03 10:55:24;;;;;;;8.65;7.32;;;25.80;77.50;;;;;;4912089;29;20043;-60
2023/10/03 10:58:12;;;;;;;9.93;7.53;;;25.70;78.50;;;;;;4925791;29;20123;-59
2023/10/03 11:00:40;;;;;;;8.48;7.13;;;25.80;76.90;;;;;;4929141;29;20386;-61
2023/10/03 11:03:06;;;;;;;14.82;7.07;;;25.90;77.20;;;;;;4929288;29;20042;-59
2023/10/03 11:05:49;;;;;;;12.60;7.05;;;26.10;78.00;;;;;;4929988;29;20023;-60
2023/10/03 11:08:19;;;;;;;10.40;7.25;;;26.10;76.60;;;;;;4927142;29;20107;-60
2023/10/03 11:10:53;;;;;;;8.77;6.70;;;26.30;77.70;;;;;;4927972;29;20032;-59
2023/10/03 11:13:19;;;;;;;9.93;6.70;;;26.50;76.90;;;;;;4928414;29;20815;-59
2023/10/03 11:15:52;;;;;;;9.38;6.93;;;26.30;75.60;;;;;;4926442;28;20032;-59
2023/10/03 11:18:28;;;;;;;10.15;7.28;;;26.10;76.40;;;;;;4927474;29;20031;-60
2023/10/03 11:20:55;;;;;;;10.05;7.78;;;26.00;77.80;;;;;;4930543;28;20028;-60
2023/10/03 11:23:23;;;;;;;10.48;7.13;;;26.00;78.30;;;;;;4926777;29;20039;-60
2023/10/03 11:25:55;;;;;;;10.27;7.07;;;26.10;78.00;;;;;;4928354;29;20615;-59
2023/10/03 11:28:21;;;;;;;12.85;6.82;;;26.00;78.30;;;;;;4926873;28;20151;-59
2023/10/03 11:31:03;;;;;;;12.85;6.88;;;25.80;79.50;;;;;;4928054;29;20135;-60
2023/10/03 11:33:40;;;;;;;11.80;6.78;;;25.70;79.50;;;;;;4928850;28;20055;-59
2023/10/03 11:36:07;;;;;;;11.05;6.82;;;25.70;79.20;;;;;;4929360;29;20566;-60
2023/10/03 11:38:46;;;;;;;8.73;6.32;;;26.00;78.40;;;;;;4928789;29;20024;-58
2023/10/03 11:41:12;;;;;;;8.43;6.57;;;26.30;77.90;;;;;;4927845;29;20024;-59
2023/10/03 11:43:46;;;;;;;10.30;6.20;;;26.50;76.50;;;;;;4930415;29;20504;-60
2023/10/03 11:46:12;;;;;;;10.60;6.63;;;26.70;74.70;;;;;;4928087;29;20046;-60
2023/10/03 11:48:38;;;;;;;7.82;5.75;;;26.50;74.50;;;;;;4927533;29;20520;-59
2023/10/03 11:51:04;;;;;;;6.97;6.18;;;26.40;75.50;;;;;;4930213;29;20036;-59
2023/10/03 11:53:31;;;;;;;7.28;6.05;;;26.40;76.00;;;;;;4925671;29;20051;-60
2023/10/03 11:55:57;;;;;;;8.02;5.45;;;26.40;76.70;;;;;;4925399;29;20385;-59
2023/10/03 11:58:22;;;;;;;6.10;4.85;;;26.40;75.80;;;;;;4926666;29;20095;-60
2023/10/03 12:00:51;;;;;;;7.90;4.45;;;26.20;74.20;;;;;;4928409;29;20825;-59
2023/10/03 12:03:17;;;;;;;5.15;4.18;;;26.10;74.30;;;;;;4928191;28;20035;-59
2023/10/03 12:05:45;;;;;;;7.43;4.57;;;26.10;74.50;;;;;;4927249;29;20091;-59
2023/10/03 12:08:11;;;;;;;6.18;4.15;;;26.10;74.20;;;;;;4928653;29;20036;-60
2023/10/03 12:10:40;;;;;;;6.80;4.40;;;26.10;74.80;;;;;;4930002;29;20084;-60
2023/10/03 12:13:06;;;;;;;7.50;4.78;;;26.10;74.90;;;;;;4928955;29;20079;-60
2023/10/03 12:15:32;;;;;;;10.65;4.57;;;26.30;75.50;;;;;;4929541;28;20035;-58
2023/10/03 12:17:59;;;;;;;5.20;3.90;;;26.50;74.40;;;;;;4924740;29;20039;-59
2023/10/03 12:20:25;;;;;;;7.60;4.45;;;26.70;74.50;;;;;;4929818;29;20032;-60
2023/10/03 12:22:53;;;;;;;13.55;4.80;;;26.90;74.10;;;;;;4926963;28;20055;-60
2023/10/03 12:25:22;;;;;;;10.20;4.47;;;26.90;71.50;;;;;;4927041;29;20477;-59
2023/10/03 12:27:49;;;;;;;8.68;3.90;;;26.90;70.90;;;;;;4928847;29;20035;-59
2023/10/03 12:30:16;;;;;;;11.70;4.07;;;26.90;70.00;;;;;;4925571;29;20032;-59
2023/10/03 12:32:48;;;;;;;14.27;3.80;;;26.80;69.40;;;;;;4924696;29;20551;-59
2023/10/03 12:35:14;;;;;;;5.88;3.58;;;26.90;68.80;;;;;;4925413;29;20024;-60
2023/10/03 12:37:44;;;;;;;5.20;3.88;;;26.60;68.50;;;;;;4927617;29;20102;-59
2023/10/03 12:40:13;;;;;;;12.52;4.57;;;26.50;69.90;;;;;;4926769;29;20081;-59
2023/10/03 12:42:50;;;;;;;8.25;3.47;;;26.40;69.60;;;;;;4925084;29;20064;-59
2023/10/03 12:45:20;;;;;;;8.07;3.80;;;25.90;70.50;;;;;;4927485;29;20040;-61
2023/10/03 12:47:47;;;;;;;4.35;3.38;;;25.60;71.30;;;;;;4924654;29;20028;-59
2023/10/03 12:50:21;;;;;;;10.43;3.75;;;25.50;72.30;;;;;;4928604;29;20037;-59